createdAt,value
2023-04-24T00:00:04.249Z,70.80
2023-04-24T00:02:08.119Z,70.90
2023-04-24T00:04:12.153Z,71.30
2023-04-24T00:06:15.176Z,71.40
2023-04-24T00:08:17.979Z,71.70
2023-04-24T00:10:23.911Z,72.10
2023-04-24T00:12:27.839Z,72.10
2023-04-24T00:14:30.601Z,72.20
2023-04-24T00:16:34.871Z,72.10
2023-04-24T00:18:37.701Z,71.90
2023-04-24T00:20:40.845Z,72.10
2023-04-24T00:22:43.701Z,72.00
2023-04-24T00:24:46.611Z,72.00
2023-04-24T00:26:49.686Z,72.10
2023-04-24T00:28:52.501Z,72.10
2023-04-24T00:30:56.348Z,72.00
2023-04-24T00:33:00.808Z,72.00
2023-04-24T00:35:04.374Z,72.00
2023-04-24T00:37:07.191Z,72.00
2023-04-24T00:39:10.887Z,71.90
2023-04-24T00:41:13.824Z,71.90
2023-04-24T00:43:18.946Z,71.80
2023-04-24T00:45:22.355Z,71.90
2023-04-24T00:47:25.758Z,71.90
2023-04-24T00:49:29.930Z,72.00
2023-04-24T00:51:33.759Z,71.80
2023-04-24T00:53:36.601Z,71.80
2023-04-24T00:55:39.353Z,71.90
2023-04-24T00:57:42.379Z,71.70
2023-04-24T00:59:45.983Z,71.90
2023-04-24T01:01:49.411Z,71.80
2023-04-24T01:03:55.774Z,71.70
2023-04-24T01:06:00.343Z,71.80
2023-04-24T01:08:04.575Z,71.70
2023-04-24T01:12:25.949Z,71.80
2023-04-24T01:14:28.916Z,71.70
2023-04-24T01:16:31.807Z,71.90
2023-04-24T01:18:34.676Z,71.90
2023-04-24T01:20:40.898Z,71.90
2023-04-24T01:22:45.456Z,72.20
2023-04-24T01:24:48.480Z,72.20
2023-04-24T01:26:51.510Z,72.10
2023-04-24T01:28:55.071Z,72.30
2023-04-24T01:30:58.291Z,72.40
2023-04-24T01:33:01.488Z,72.50
2023-04-24T01:35:04.969Z,72.60
2023-04-24T01:37:07.916Z,72.60
2023-04-24T01:39:12.333Z,72.60
2023-04-24T01:41:15.381Z,72.60
2023-04-24T01:43:18.379Z,72.60
2023-04-24T01:45:21.246Z,72.70
2023-04-24T01:47:24.321Z,72.90
2023-04-24T01:49:27.151Z,72.90
2023-04-24T01:51:29.988Z,72.80
2023-04-24T01:53:32.884Z,72.70
2023-04-24T01:55:37.358Z,72.80
2023-04-24T01:57:40.627Z,72.90
2023-04-24T01:59:43.626Z,72.90
2023-04-24T02:01:46.588Z,72.90
2023-04-24T02:03:49.871Z,73.10
2023-04-24T02:05:52.677Z,73.00
2023-04-24T02:07:55.657Z,74.10
2023-04-24T02:09:58.439Z,73.40
2023-04-24T02:12:02.714Z,73.60
2023-04-24T02:14:05.620Z,73.60
2023-04-24T02:16:08.411Z,73.80
2023-04-24T02:18:13.816Z,74.10
2023-04-24T02:20:20.764Z,74.30
2023-04-24T02:22:23.639Z,74.30
2023-04-24T02:24:26.632Z,74.20
2023-04-24T02:26:29.445Z,74.30
2023-04-24T02:28:33.529Z,74.30
2023-04-24T02:30:36.507Z,74.20
2023-04-24T02:32:39.978Z,74.30
2023-04-24T02:34:43.052Z,74.30
2023-04-24T02:36:45.826Z,74.30
2023-04-24T02:38:48.651Z,74.20
2023-04-24T02:40:51.897Z,74.20
2023-04-24T02:42:54.695Z,74.20
2023-04-24T02:44:59.482Z,74.30
2023-04-24T02:47:02.300Z,74.30
2023-04-24T02:49:05.382Z,74.50
2023-04-24T02:51:08.669Z,74.50
2023-04-24T02:53:12.099Z,74.70
2023-04-24T02:55:14.991Z,74.50
2023-04-24T02:57:17.819Z,74.70
2023-04-24T02:59:20.592Z,75.30
2023-04-24T03:01:24.714Z,74.70
2023-04-24T03:03:27.617Z,74.60
2023-04-24T03:05:31.766Z,74.40
2023-04-24T03:07:34.580Z,74.60
2023-04-24T03:09:37.390Z,74.70
2023-04-24T03:11:40.690Z,74.90
2023-04-24T03:13:43.558Z,75.00
2023-04-24T03:15:47.838Z,75.30
2023-04-24T03:17:52.983Z,75.60
2023-04-24T03:19:57.030Z,75.50
2023-04-24T03:21:59.977Z,75.60
2023-04-24T03:24:03.393Z,75.80
2023-04-24T03:26:06.729Z,75.70
2023-04-24T03:28:09.503Z,75.60
2023-04-24T03:30:11.768Z,75.50
2023-04-24T03:32:14.523Z,75.50
2023-04-24T03:34:18.735Z,75.70
2023-04-24T03:36:21.525Z,75.80
2023-04-24T03:38:24.565Z,75.70
2023-04-24T03:40:27.563Z,75.80
2023-04-24T03:42:30.337Z,75.70
2023-04-24T03:44:33.374Z,75.70
2023-04-24T03:46:36.601Z,75.80
2023-04-24T03:48:39.438Z,75.90
2023-04-24T03:50:43.822Z,75.90
2023-04-24T03:52:46.908Z,76.10
2023-04-24T03:54:49.974Z,76.10
2023-04-24T03:56:52.993Z,76.20
2023-04-24T03:58:56.327Z,76.20
2023-04-24T04:01:01.113Z,76.30
2023-04-24T04:03:04.366Z,76.40
2023-04-24T04:05:07.836Z,76.40
2023-04-24T04:07:12.239Z,76.50
2023-04-24T04:09:15.185Z,76.60
2023-04-24T04:11:18.000Z,76.70
2023-04-24T04:13:21.117Z,76.80
2023-04-24T04:15:23.887Z,76.80
2023-04-24T04:17:27.246Z,76.80
2023-04-24T04:19:30.033Z,76.80
2023-04-24T04:21:33.205Z,76.70
2023-04-24T04:23:37.513Z,76.70
2023-04-24T04:25:40.259Z,76.70
2023-04-24T04:27:43.186Z,76.60
2023-04-24T04:29:46.377Z,76.80
2023-04-24T04:31:49.137Z,76.70
2023-04-24T04:33:51.921Z,76.70
2023-04-24T04:35:54.711Z,76.70
2023-04-24T04:37:59.949Z,76.60
2023-04-24T04:40:07.521Z,76.70
2023-04-24T04:42:10.599Z,76.80
2023-04-24T04:44:14.041Z,76.70
2023-04-24T04:46:17.229Z,76.70
2023-04-24T04:48:20.639Z,76.60
2023-04-24T04:50:24.180Z,76.70
2023-04-24T04:52:27.624Z,76.90
2023-04-24T04:54:30.424Z,76.70
2023-04-24T04:56:34.751Z,76.90
2023-04-24T04:58:37.547Z,76.90
2023-04-24T05:00:40.844Z,76.90
2023-04-24T05:02:44.030Z,77.10
2023-04-24T05:04:47.279Z,76.70
2023-04-24T05:06:52.228Z,76.90
2023-04-24T05:08:58.060Z,76.80
2023-04-24T05:11:01.411Z,76.90
2023-04-24T05:13:05.980Z,77.00
2023-04-24T05:15:09.756Z,76.90
2023-04-24T05:17:12.689Z,76.90
2023-04-24T05:19:15.780Z,76.40
2023-04-24T05:21:18.586Z,76.40
2023-04-24T05:23:21.731Z,76.40
2023-04-24T05:25:24.776Z,76.50
2023-04-24T05:27:27.816Z,76.40
2023-04-24T05:29:32.650Z,76.40
2023-04-24T05:31:35.809Z,76.30
2023-04-24T05:33:38.674Z,76.20
2023-04-24T05:35:46.517Z,75.80
2023-04-24T05:37:49.555Z,76.00
2023-04-24T05:39:52.295Z,75.50
2023-04-24T05:41:55.037Z,75.60
2023-04-24T05:43:57.825Z,75.70
2023-04-24T05:46:02.144Z,76.00
2023-04-24T05:48:05.398Z,76.20
2023-04-24T05:50:10.042Z,76.10
2023-04-24T05:52:12.783Z,76.30
2023-04-24T05:54:15.630Z,76.00
2023-04-24T05:56:18.841Z,76.30
2023-04-24T05:58:21.667Z,76.20
2023-04-24T06:00:26.188Z,75.80
2023-04-24T06:02:33.702Z,75.80
2023-04-24T06:04:37.885Z,75.30
2023-04-24T06:06:44.501Z,75.40
2023-04-24T06:09:03.937Z,75.40
2023-04-24T06:11:08.005Z,75.60
2023-04-24T06:13:12.690Z,75.30
2023-04-24T06:15:18.946Z,75.30
2023-04-24T06:17:30.913Z,75.20
2023-04-24T06:19:36.790Z,73.90
2023-04-24T06:21:39.846Z,73.30
2023-04-24T06:23:42.946Z,73.70
2023-04-24T06:25:48.124Z,72.80
2023-04-24T06:27:58.073Z,74.10
2023-04-24T06:30:06.097Z,74.10
2023-04-24T06:32:12.687Z,73.70
2023-04-24T06:34:15.978Z,72.70
2023-04-24T06:37:10.669Z,73.20
2023-04-24T06:39:19.130Z,74.10
2023-04-24T06:41:22.192Z,73.60
2023-04-24T06:43:25.192Z,73.10
2023-04-24T06:45:28.308Z,72.50
2023-04-24T06:47:31.553Z,71.90
2023-04-24T06:53:24.678Z,70.80
2023-04-24T06:55:27.688Z,70.80
2023-04-24T06:57:31.184Z,70.30
2023-04-24T06:59:34.811Z,69.90
2023-04-24T07:01:37.883Z,70.70
2023-04-24T07:03:40.882Z,70.40
2023-04-24T07:05:43.829Z,69.90
2023-04-24T07:07:48.478Z,68.50
2023-04-24T07:09:51.912Z,68.80
2023-04-24T07:11:55.595Z,68.20
2023-04-24T07:13:58.358Z,67.80
2023-04-24T07:16:01.633Z,67.50
2023-04-24T07:18:05.964Z,66.90
2023-04-24T07:20:10.455Z,66.00
2023-04-24T07:22:18.156Z,65.60
2023-04-24T07:24:23.032Z,64.70
2023-04-24T07:26:27.659Z,62.30
2023-04-24T07:28:32.049Z,61.10
2023-04-24T07:30:38.335Z,62.50
2023-04-24T07:32:41.193Z,63.80
2023-04-24T07:34:44.347Z,63.30
2023-04-24T07:36:48.308Z,61.70
2023-04-24T07:38:51.169Z,61.60
2023-04-24T07:40:55.394Z,61.50
2023-04-24T07:42:58.108Z,61.70
2023-04-24T07:45:03.529Z,61.10
2023-04-24T07:47:06.683Z,59.30
2023-04-24T07:49:13.781Z,60.20
2023-04-24T07:51:17.546Z,59.60
2023-04-24T07:53:22.392Z,59.50
2023-04-24T07:55:28.073Z,59.40
2023-04-24T07:57:32.607Z,58.60
2023-04-24T07:59:35.526Z,58.90
2023-04-24T08:01:38.627Z,57.80
2023-04-24T08:03:41.778Z,57.90
2023-04-24T08:05:45.160Z,57.60
2023-04-24T08:07:49.670Z,57.60
2023-04-24T08:09:53.127Z,57.50
2023-04-24T08:11:55.956Z,57.50
2023-04-24T08:14:00.842Z,57.10
2023-04-24T08:16:03.730Z,58.00
2023-04-24T08:18:07.165Z,56.90
2023-04-24T08:20:14.528Z,56.30
2023-04-24T08:22:17.793Z,55.10
2023-04-24T08:24:20.764Z,57.20
2023-04-24T08:26:23.642Z,57.10
2023-04-24T08:28:27.688Z,56.30
2023-04-24T08:30:32.596Z,55.50
2023-04-24T08:32:35.703Z,56.60
2023-04-24T08:34:38.530Z,57.00
2023-04-24T08:36:47.155Z,56.50
2023-04-24T08:38:50.409Z,57.20
2023-04-24T08:40:53.644Z,56.70
2023-04-24T08:42:57.315Z,56.80
2023-04-24T08:45:00.546Z,55.60
2023-04-24T08:47:06.262Z,57.40
2023-04-24T08:49:09.026Z,56.10
2023-04-24T08:51:12.011Z,56.80
2023-04-24T08:53:14.944Z,56.40
2023-04-24T08:55:19.092Z,55.70
2023-04-24T08:57:22.096Z,56.50
2023-04-24T08:59:25.452Z,56.60
2023-04-24T09:01:29.927Z,56.30
2023-04-24T09:03:40.459Z,55.00
2023-04-24T09:05:46.725Z,54.70
2023-04-24T09:07:56.196Z,54.40
2023-04-24T09:09:59.108Z,53.60
2023-04-24T09:12:03.254Z,54.70
2023-04-24T09:14:06.385Z,55.30
2023-04-24T09:16:09.259Z,55.10
2023-04-24T09:18:12.371Z,54.80
2023-04-24T09:20:16.624Z,55.10
2023-04-24T09:22:19.610Z,55.00
2023-04-24T09:24:24.315Z,55.90
2023-04-24T09:26:27.875Z,55.60
2023-04-24T09:28:34.232Z,55.00
2023-04-24T09:30:37.085Z,55.50
2023-04-24T09:32:39.982Z,56.00
2023-04-24T09:34:44.953Z,55.60
2023-04-24T09:36:49.064Z,55.10
2023-04-24T09:38:59.586Z,52.90
2023-04-24T09:41:04.751Z,52.00
2023-04-24T09:43:13.456Z,54.50
2023-04-24T09:45:16.496Z,55.10
2023-04-24T09:47:19.377Z,54.50
2023-04-24T09:49:25.732Z,54.20
2023-04-24T09:51:37.996Z,53.10
2023-04-24T09:53:47.220Z,52.80
2023-04-24T09:55:51.669Z,52.30
2023-04-24T09:57:56.023Z,51.90
2023-04-24T10:00:01.310Z,53.20
2023-04-24T10:02:07.373Z,53.70
2023-04-24T10:04:18.207Z,53.20
2023-04-24T10:06:21.388Z,52.80
2023-04-24T10:08:24.240Z,53.60
2023-04-24T10:10:28.738Z,54.40
2023-04-24T10:12:32.672Z,54.70
2023-04-24T10:14:35.622Z,54.40
2023-04-24T10:16:38.869Z,54.20
2023-04-24T10:18:41.937Z,54.60
2023-04-24T10:20:44.707Z,54.50
2023-04-24T10:22:50.891Z,54.70
2023-04-24T10:24:54.671Z,54.40
2023-04-24T10:26:59.820Z,54.90
2023-04-24T10:29:04.057Z,54.90
2023-04-24T10:31:07.147Z,55.10
2023-04-24T10:33:10.736Z,55.00
2023-04-24T10:35:15.821Z,54.80
2023-04-24T10:37:18.782Z,54.90
2023-04-24T10:39:27.453Z,54.70
2023-04-24T10:41:32.787Z,54.50
2023-04-24T10:43:38.253Z,54.30
2023-04-24T10:45:43.856Z,54.30
2023-04-24T10:47:54.268Z,54.30
2023-04-24T10:50:01.693Z,54.40
2023-04-24T10:52:06.446Z,55.00
2023-04-24T10:54:24.583Z,55.00
2023-04-24T10:56:28.418Z,55.30
2023-04-24T10:58:41.932Z,55.50
2023-04-24T11:00:47.253Z,55.80
2023-04-24T11:02:52.028Z,54.70
2023-04-24T11:04:55.050Z,54.60
2023-04-24T11:06:58.012Z,55.00
2023-04-24T11:09:06.288Z,55.00
2023-04-24T11:11:13.397Z,54.60
2023-04-24T11:13:24.223Z,55.00
2023-04-24T11:15:30.856Z,54.30
2023-04-24T11:17:35.108Z,53.80
2023-04-24T11:19:38.088Z,53.40
2023-04-24T11:21:43.222Z,53.50
2023-04-24T11:23:49.249Z,54.00
2023-04-24T11:26:12.627Z,54.10
2023-04-24T11:28:18.180Z,54.00
2023-04-24T11:30:22.408Z,53.60
2023-04-24T11:32:30.397Z,53.20
2023-04-24T11:34:37.024Z,53.10
2023-04-24T11:36:41.326Z,52.60
2023-04-24T11:38:45.286Z,52.70
2023-04-24T11:40:50.819Z,53.10
2023-04-24T11:42:56.336Z,53.50
2023-04-24T11:45:01.342Z,52.70
2023-04-24T11:47:04.438Z,51.80
2023-04-24T11:49:08.568Z,52.70
2023-04-24T11:51:12.402Z,53.20
2023-04-24T11:53:15.405Z,52.90
2023-04-24T11:55:29.473Z,53.20
2023-04-24T11:57:34.763Z,53.50
2023-04-24T11:59:38.972Z,54.30
2023-04-24T12:01:48.782Z,56.00
2023-04-24T12:03:53.316Z,59.10
2023-04-24T12:06:09.029Z,60.70
2023-04-24T12:08:12.677Z,62.30
2023-04-24T12:10:15.715Z,62.60
2023-04-24T12:12:19.818Z,61.90
2023-04-24T12:14:22.623Z,61.40
2023-04-24T12:16:28.282Z,61.20
2023-04-24T12:18:31.473Z,61.60
2023-04-24T12:20:37.443Z,61.00
2023-04-24T12:22:48.599Z,62.00
2023-04-24T12:25:02.486Z,62.60
2023-04-24T12:27:05.339Z,63.20
2023-04-24T12:29:08.974Z,64.30
2023-04-24T12:31:12.096Z,64.60
2023-04-24T12:36:33.469Z,64.80
2023-04-24T12:38:42.048Z,62.60
2023-04-24T12:40:46.011Z,62.10
2023-04-24T12:42:50.426Z,62.50
2023-04-24T12:44:58.833Z,61.60
2023-04-24T12:47:01.949Z,61.50
2023-04-24T12:49:04.880Z,62.10
2023-04-24T12:51:07.980Z,62.00
2023-04-24T12:53:11.348Z,62.30
2023-04-24T12:55:15.575Z,62.80
2023-04-24T12:57:20.839Z,62.60
2023-04-24T12:59:24.866Z,62.10
2023-04-24T13:01:29.050Z,61.40
2023-04-24T13:03:32.282Z,61.00
2023-04-24T13:05:35.328Z,59.90
2023-04-24T13:07:38.362Z,60.30
2023-04-24T13:09:41.960Z,60.30
2023-04-24T13:11:46.464Z,60.50
2023-04-24T13:13:53.185Z,61.50
2023-04-24T13:15:57.919Z,61.90
2023-04-24T13:18:01.444Z,60.80
2023-04-24T13:20:04.872Z,61.10
2023-04-24T13:22:08.094Z,61.00
2023-04-24T13:24:12.018Z,60.30
2023-04-24T13:26:14.935Z,59.70
2023-04-24T13:28:19.047Z,58.10
2023-04-24T13:30:22.409Z,58.60
2023-04-24T13:32:26.258Z,58.60
2023-04-24T13:34:29.410Z,58.50
2023-04-24T13:36:32.645Z,58.80
2023-04-24T13:38:38.071Z,59.50
2023-04-24T13:40:46.829Z,59.60
2023-04-24T13:42:49.748Z,60.60
2023-04-24T13:44:54.963Z,60.60
2023-04-24T13:46:58.541Z,60.10
2023-04-24T13:49:01.579Z,59.50
2023-04-24T13:51:04.714Z,61.00
2023-04-24T13:53:07.444Z,62.20
2023-04-24T13:55:10.498Z,61.60
2023-04-24T13:57:13.395Z,63.00
2023-04-24T13:59:16.192Z,63.00
2023-04-24T14:01:20.315Z,64.40
2023-04-24T14:03:25.738Z,64.50
2023-04-24T14:05:28.576Z,64.90
2023-04-24T14:07:31.552Z,65.80
2023-04-24T14:09:34.388Z,66.10
2023-04-24T14:11:37.552Z,65.10
2023-04-24T14:13:40.819Z,64.00
2023-04-24T14:15:43.638Z,65.40
2023-04-24T14:17:48.294Z,65.30
2023-04-24T14:19:54.099Z,64.50
2023-04-24T14:21:59.289Z,64.40
2023-04-24T14:24:02.028Z,63.40
2023-04-24T14:26:04.808Z,62.50
2023-04-24T14:28:10.830Z,63.60
2023-04-24T14:30:14.646Z,63.80
2023-04-24T14:32:17.425Z,63.50
2023-04-24T14:34:21.516Z,63.00
2023-04-24T14:36:24.315Z,63.10
2023-04-24T14:38:27.641Z,62.30
2023-04-24T14:40:58.333Z,62.30
2023-04-24T14:42:53.657Z,64.10
2023-04-24T14:44:57.509Z,65.00
2023-04-24T14:47:01.162Z,65.10
2023-04-24T14:49:04.596Z,64.60
2023-04-24T14:51:09.375Z,64.90
2023-04-24T14:53:12.145Z,65.90
2023-04-24T14:55:15.399Z,65.50
2023-04-24T14:57:18.480Z,64.60
2023-04-24T14:59:21.325Z,64.40
2023-04-24T15:01:25.043Z,65.00
2023-04-24T15:03:29.162Z,64.20
2023-04-24T15:05:32.640Z,63.30
2023-04-24T15:07:37.722Z,63.30
2023-04-24T15:09:40.827Z,63.20
2023-04-24T15:11:43.725Z,64.20
2023-04-24T15:13:47.209Z,64.90
2023-04-24T15:15:50.560Z,65.20
2023-04-24T15:17:56.659Z,65.10
2023-04-24T15:19:59.562Z,64.20
2023-04-24T15:22:02.631Z,64.40
2023-04-24T15:24:07.079Z,65.60
2023-04-24T15:26:09.867Z,66.00
2023-04-24T15:28:12.779Z,66.50
2023-04-24T15:30:16.182Z,66.20
2023-04-24T15:32:19.062Z,65.80
2023-04-24T15:34:22.054Z,65.80
2023-04-24T15:36:24.902Z,66.90
2023-04-24T15:38:27.987Z,66.00
2023-04-24T15:40:32.348Z,65.60
2023-04-24T15:42:36.799Z,65.70
2023-04-24T15:44:39.665Z,66.10
2023-04-24T15:46:42.463Z,66.40
2023-04-24T15:48:45.609Z,65.90
2023-04-24T15:50:48.507Z,66.20
2023-04-24T15:52:53.956Z,66.40
2023-04-24T15:54:56.912Z,66.00
2023-04-24T15:57:01.951Z,65.70
2023-04-24T15:59:04.961Z,64.80
2023-04-24T16:01:07.955Z,65.60
2023-04-24T16:03:11.073Z,65.30
2023-04-24T16:05:13.915Z,64.90
2023-04-24T16:07:18.086Z,64.60
2023-04-24T16:09:21.094Z,64.80
2023-04-24T16:11:23.931Z,65.10
2023-04-24T16:13:29.088Z,66.20
2023-04-24T16:15:32.019Z,66.60
2023-04-24T16:17:34.770Z,67.20
2023-04-24T16:19:37.684Z,67.00
2023-04-24T16:21:40.519Z,68.00
2023-04-24T16:23:43.423Z,65.10
2023-04-24T16:25:48.364Z,65.40
2023-04-24T16:27:52.661Z,65.40
2023-04-24T16:29:57.303Z,65.40
2023-04-24T16:32:00.248Z,66.50
2023-04-24T16:34:02.942Z,66.70
2023-04-24T16:36:07.130Z,66.60
2023-04-24T16:38:11.343Z,67.00
2023-04-24T16:40:14.695Z,67.90
2023-04-24T16:42:17.554Z,68.70
2023-04-24T16:44:25.292Z,68.40
2023-04-24T16:46:29.439Z,69.10
2023-04-24T16:48:35.060Z,69.80
2023-04-24T16:50:38.149Z,70.20
2023-04-24T16:52:41.251Z,69.80
2023-04-24T16:54:44.184Z,68.20
2023-04-24T16:56:47.053Z,67.20
2023-04-24T16:58:50.143Z,67.90
2023-04-24T17:00:53.305Z,67.10
2023-04-24T17:02:57.547Z,65.30
2023-04-24T17:05:00.647Z,65.70
2023-04-24T17:07:03.614Z,65.40
2023-04-24T17:09:06.470Z,64.40
2023-04-24T17:11:09.283Z,65.60
2023-04-24T17:13:14.441Z,66.30
2023-04-24T17:15:17.560Z,66.60
2023-04-24T17:17:23.144Z,66.40
2023-04-24T17:19:27.340Z,66.40
2023-04-24T17:21:30.303Z,66.50
2023-04-24T17:23:33.047Z,67.50
2023-04-24T17:25:35.763Z,66.90
2023-04-24T17:27:38.576Z,66.70
2023-04-24T17:29:42.180Z,66.10
2023-04-24T17:31:45.122Z,66.40
2023-04-24T17:33:47.859Z,66.20
2023-04-24T17:35:51.993Z,65.30
2023-04-24T17:37:54.724Z,65.00
2023-04-24T17:39:58.548Z,65.50
2023-04-24T17:42:02.208Z,65.10
2023-04-24T17:44:05.059Z,65.50
2023-04-24T17:46:08.505Z,66.20
2023-04-24T17:48:11.438Z,66.50
2023-04-24T17:50:14.709Z,65.60
2023-04-24T17:52:18.895Z,65.70
2023-04-24T17:54:21.739Z,65.30
2023-04-24T17:56:25.794Z,65.30
2023-04-24T17:58:28.769Z,65.10
2023-04-24T18:00:31.867Z,65.30
2023-04-24T18:02:36.343Z,64.60
2023-04-24T18:04:40.623Z,64.70
2023-04-24T18:06:43.519Z,64.90
2023-04-24T18:08:47.824Z,65.00
2023-04-24T18:10:50.762Z,64.50
2023-04-24T18:12:53.881Z,64.30
2023-04-24T18:15:12.480Z,65.10
2023-04-24T18:17:16.219Z,64.50
2023-04-24T18:19:18.974Z,65.80
2023-04-24T18:21:21.784Z,65.30
2023-04-24T18:23:24.749Z,64.60
2023-04-24T18:25:28.870Z,64.20
2023-04-24T18:27:31.837Z,64.50
2023-04-24T18:29:34.566Z,64.40
2023-04-24T18:31:38.703Z,64.60
2023-04-24T18:33:41.499Z,63.70
2023-04-24T18:35:44.334Z,64.10
2023-04-24T18:37:47.176Z,64.40
2023-04-24T18:39:50.635Z,64.00
2023-04-24T18:41:55.042Z,64.00
2023-04-24T18:43:59.476Z,63.90
2023-04-24T18:46:02.333Z,64.20
2023-04-24T18:48:05.509Z,64.60
2023-04-24T18:50:09.503Z,64.80
2023-04-24T18:52:12.804Z,65.30
2023-04-24T18:54:16.709Z,65.40
2023-04-24T18:56:20.037Z,65.40
2023-04-24T18:58:24.174Z,65.60
2023-04-24T19:00:27.733Z,65.60
2023-04-24T19:02:30.835Z,65.50
2023-04-24T19:04:33.725Z,65.60
2023-04-24T19:06:36.636Z,65.50
2023-04-24T19:08:42.532Z,65.70
2023-04-24T19:10:45.354Z,65.90
2023-04-24T19:12:49.483Z,66.00
2023-04-24T19:14:56.199Z,66.00
2023-04-24T19:16:59.030Z,66.50
2023-04-24T19:19:03.704Z,66.40
2023-04-24T19:21:08.472Z,65.50
2023-04-24T19:23:11.465Z,65.80
2023-04-24T19:25:15.085Z,66.10
2023-04-24T19:27:18.160Z,66.20
2023-04-24T19:29:20.969Z,66.00
2023-04-24T19:31:25.360Z,66.40
2023-04-24T19:33:29.666Z,66.60
2023-04-24T19:35:34.563Z,66.90
2023-04-24T19:37:40.311Z,67.10
2023-04-24T19:39:47.071Z,67.00
2023-04-24T19:41:51.819Z,66.60
2023-04-24T19:43:56.918Z,66.30
2023-04-24T19:45:59.976Z,66.90
2023-04-24T19:48:06.335Z,66.60
2023-04-24T19:50:10.315Z,66.50
2023-04-24T19:52:13.513Z,66.40
2023-04-24T19:54:17.100Z,66.20
2023-04-24T19:56:24.810Z,66.50
2023-04-24T19:58:30.424Z,67.00
2023-04-24T20:00:35.415Z,66.60
2023-04-24T20:02:38.697Z,66.70
2023-04-24T20:04:43.304Z,66.70
2023-04-24T20:06:46.224Z,66.40
2023-04-24T20:08:49.352Z,66.50
2023-04-24T20:10:54.234Z,66.50
2023-04-24T20:12:57.413Z,66.10
2023-04-24T20:15:00.851Z,66.10
2023-04-24T20:17:03.979Z,66.30
2023-04-24T20:19:06.821Z,66.70
2023-04-24T20:21:11.293Z,66.70
2023-04-24T20:23:14.418Z,66.60
2023-04-24T20:25:17.936Z,66.40
2023-04-24T20:27:20.926Z,65.60
2023-04-24T20:29:26.005Z,65.80
2023-04-24T20:31:28.973Z,66.20
2023-04-24T20:33:32.336Z,66.90
2023-04-24T20:35:35.300Z,66.80
2023-04-24T20:37:39.935Z,66.80
2023-04-24T20:39:44.494Z,66.90
2023-04-24T20:41:47.542Z,67.10
2023-04-24T20:43:50.704Z,67.20
2023-04-24T20:45:53.540Z,67.00
2023-04-24T20:47:56.406Z,66.80
2023-04-24T20:50:02.173Z,66.40
2023-04-24T20:52:04.955Z,66.50
2023-04-24T20:54:09.237Z,66.70
2023-04-24T20:56:12.380Z,66.60
2023-04-24T20:58:15.450Z,66.60
2023-04-24T21:00:18.347Z,66.40
2023-04-24T21:02:21.375Z,66.40
2023-04-24T21:04:24.353Z,66.10
2023-04-24T21:06:27.599Z,66.20
2023-04-24T21:08:30.342Z,66.20
2023-04-24T21:10:34.409Z,66.40
2023-04-24T21:12:38.202Z,66.70
2023-04-24T21:14:41.101Z,67.00
2023-04-24T21:16:43.903Z,67.00
2023-04-24T21:18:46.961Z,66.80
2023-04-24T21:20:50.019Z,66.80
2023-04-24T21:22:52.766Z,66.90
2023-04-24T21:24:55.542Z,66.90
2023-04-24T21:26:59.742Z,67.20
2023-04-24T21:29:04.802Z,67.30
2023-04-24T21:31:07.694Z,67.90
2023-04-24T21:33:10.852Z,68.20
2023-04-24T21:35:13.718Z,68.30
2023-04-24T21:37:16.478Z,68.20
2023-04-24T21:39:19.385Z,67.90
2023-04-24T21:41:22.804Z,68.00
2023-04-24T21:43:37.255Z,68.30
2023-04-24T21:45:44.721Z,68.40
2023-04-24T21:47:47.825Z,68.50
2023-04-24T21:49:50.917Z,68.30
2023-04-24T21:51:53.634Z,68.10
2023-04-24T21:53:56.612Z,67.80
2023-04-24T21:55:59.499Z,67.60
2023-04-24T21:58:02.438Z,67.60
2023-04-24T22:00:11.378Z,67.70
2023-04-24T22:02:15.265Z,67.70
2023-04-24T22:04:18.249Z,67.80
2023-04-24T22:06:21.189Z,68.30
2023-04-24T22:08:23.989Z,68.30
2023-04-24T22:10:27.018Z,68.20
2023-04-24T22:12:30.000Z,68.30
2023-04-24T22:14:32.807Z,68.00
2023-04-24T22:16:37.118Z,67.50
2023-04-24T22:18:47.048Z,67.60
2023-04-24T22:20:50.644Z,67.80
2023-04-24T22:22:53.503Z,67.80
2023-04-24T22:24:56.862Z,68.00
2023-04-24T22:26:59.819Z,67.50
2023-04-24T22:29:02.923Z,67.60
2023-04-24T22:31:05.844Z,67.30
2023-04-24T22:33:10.019Z,67.30
2023-04-24T22:35:13.088Z,67.30
2023-04-24T22:37:16.034Z,67.70
2023-04-24T22:39:19.700Z,68.20
2023-04-24T22:41:23.303Z,68.40
2023-04-24T22:43:26.242Z,68.70
2023-04-24T22:45:31.148Z,69.80
2023-04-24T22:47:34.738Z,68.90
2023-04-24T22:49:39.784Z,69.90
2023-04-24T22:51:42.657Z,68.80
2023-04-24T22:53:45.468Z,70.30
2023-04-24T22:55:49.774Z,70.60
2023-04-24T22:57:52.663Z,70.50
2023-04-24T22:59:58.346Z,69.20
2023-04-24T23:02:01.706Z,69.10
2023-04-24T23:04:05.173Z,68.80
2023-04-24T23:06:09.896Z,69.80
2023-04-24T23:08:12.735Z,68.90
2023-04-24T23:10:15.729Z,69.10
2023-04-24T23:12:18.595Z,69.00
2023-04-24T23:14:21.815Z,68.80
2023-04-24T23:16:24.595Z,69.80
2023-04-24T23:18:27.426Z,70.00
2023-04-24T23:20:30.498Z,70.10
2023-04-24T23:22:35.200Z,70.50
2023-04-24T23:24:38.367Z,70.90
2023-04-24T23:26:41.324Z,71.00
2023-04-24T23:28:44.098Z,70.80
2023-04-24T23:30:47.198Z,70.60
2023-04-24T23:32:50.016Z,70.50
2023-04-24T23:34:52.789Z,70.20
2023-04-24T23:36:56.313Z,70.20
2023-04-24T23:39:03.177Z,70.20
2023-04-24T23:41:06.220Z,70.00
2023-04-24T23:43:09.050Z,70.20
2023-04-24T23:45:12.419Z,70.30
2023-04-24T23:47:15.219Z,70.10
2023-04-24T23:49:17.986Z,70.30
2023-04-24T23:51:20.770Z,70.60
2023-04-24T23:53:23.976Z,70.60
2023-04-24T23:55:29.760Z,70.60
2023-04-24T23:57:32.576Z,70.70
2023-04-24T23:59:35.796Z,70.60
